createdAt,value
2022-10-25T00:01:18.711Z,1.10
2022-10-25T00:03:46.098Z,1.25
2022-10-25T00:06:13.777Z,0.95
2022-10-25T00:08:40.805Z,1.85
2022-10-25T00:11:11.193Z,1.50
2022-10-25T00:13:38.439Z,1.23
2022-10-25T00:16:05.626Z,1.25
2022-10-25T00:18:33.462Z,1.15
2022-10-25T00:21:04.453Z,1.00
2022-10-25T00:23:31.466Z,1.20
2022-10-25T00:26:07.402Z,1.88
2022-10-25T00:28:34.529Z,1.30
2022-10-25T00:31:07.221Z,1.08
2022-10-25T00:36:13.858Z,2.00
2022-10-25T00:38:41.803Z,1.60
2022-10-25T00:41:10.321Z,1.00
2022-10-25T00:43:51.387Z,1.15
2022-10-25T00:46:18.337Z,0.85
2022-10-25T00:49:03.499Z,1.15
2022-10-25T00:51:37.236Z,3.05
2022-10-25T00:54:05.799Z,1.40
2022-10-25T00:56:35.414Z,1.05
2022-10-25T00:59:07.242Z,1.08
2022-10-25T01:01:34.790Z,1.13
2022-10-25T01:04:07.433Z,1.10
2022-10-25T01:06:39.769Z,1.20
2022-10-25T01:09:09.742Z,0.95
2022-10-25T01:11:37.755Z,0.80
2022-10-25T01:14:07.686Z,1.00
2022-10-25T01:16:43.560Z,0.85
2022-10-25T01:19:13.410Z,1.17
2022-10-25T01:21:45.764Z,0.65
2022-10-25T01:24:31.329Z,1.00
2022-10-25T01:27:01.038Z,1.00
2022-10-25T01:29:39.479Z,0.63
2022-10-25T01:32:13.481Z,1.73
2022-10-25T01:34:58.794Z,1.30
2022-10-25T01:37:45.129Z,1.08
2022-10-25T01:40:31.246Z,1.35
2022-10-25T01:43:30.473Z,1.20
2022-10-25T01:46:10.707Z,0.68
2022-10-25T01:48:45.584Z,0.82
2022-10-25T01:51:16.926Z,0.88
2022-10-25T01:53:51.852Z,1.00
2022-10-25T01:56:33.112Z,1.42
2022-10-25T01:59:18.403Z,0.85
2022-10-25T02:01:57.598Z,0.90
2022-10-25T02:04:39.954Z,1.15
2022-10-25T02:07:25.197Z,0.60
2022-10-25T02:10:01.895Z,1.25
2022-10-25T02:12:36.718Z,0.80
2022-10-25T02:15:15.717Z,0.82
2022-10-25T02:17:53.398Z,1.30
2022-10-25T02:20:24.365Z,0.93
2022-10-25T02:22:53.565Z,1.17
2022-10-25T02:25:21.744Z,1.73
2022-10-25T02:27:52.641Z,0.65
2022-10-25T02:30:20.038Z,1.10
2022-10-25T02:32:47.070Z,0.77
2022-10-25T02:35:15.753Z,1.40
2022-10-25T02:37:43.173Z,0.93
2022-10-25T02:40:11.505Z,1.10
2022-10-25T02:42:38.491Z,0.95
2022-10-25T02:45:06.271Z,1.15
2022-10-25T02:47:33.352Z,0.93
2022-10-25T02:50:00.416Z,1.95
2022-10-25T02:52:27.429Z,1.55
2022-10-25T02:54:54.438Z,1.20
2022-10-25T02:57:21.409Z,1.20
2022-10-25T02:59:48.607Z,0.80
2022-10-25T03:02:15.677Z,0.93
2022-10-25T03:04:42.703Z,1.23
2022-10-25T03:07:09.822Z,1.15
2022-10-25T03:09:36.881Z,3.15
2022-10-25T03:12:04.008Z,8.75
2022-10-25T03:14:30.990Z,2.17
2022-10-25T03:16:58.005Z,1.15
2022-10-25T03:19:25.021Z,0.65
2022-10-25T03:21:52.160Z,1.30
2022-10-25T03:24:19.152Z,1.13
2022-10-25T03:26:46.132Z,0.88
2022-10-25T03:29:13.120Z,0.98
2022-10-25T03:31:40.105Z,1.13
2022-10-25T03:34:07.093Z,1.83
2022-10-25T03:36:34.151Z,1.30
2022-10-25T03:39:01.147Z,1.35
2022-10-25T03:41:28.122Z,0.95
2022-10-25T03:43:55.881Z,1.38
2022-10-25T03:46:22.845Z,1.00
2022-10-25T03:48:49.839Z,1.08
2022-10-25T03:51:16.850Z,0.90
2022-10-25T03:53:43.846Z,1.77
2022-10-25T03:56:10.809Z,1.20
2022-10-25T03:58:37.814Z,1.73
2022-10-25T04:01:08.736Z,1.13
2022-10-25T04:03:36.095Z,2.90
2022-10-25T04:06:03.099Z,1.92
2022-10-25T04:08:30.087Z,1.10
2022-10-25T04:10:57.127Z,1.35
2022-10-25T04:13:24.158Z,0.90
2022-10-25T04:15:51.132Z,2.75
2022-10-25T04:18:19.254Z,1.02
2022-10-25T04:20:46.289Z,0.55
2022-10-25T04:23:13.264Z,1.05
2022-10-25T04:25:40.276Z,1.00
2022-10-25T04:28:07.345Z,0.93
2022-10-25T04:30:37.931Z,1.10
2022-10-25T04:33:06.746Z,0.82
2022-10-25T04:35:33.753Z,1.10
2022-10-25T04:38:00.773Z,1.23
2022-10-25T04:40:27.752Z,2.08
2022-10-25T04:42:54.841Z,1.33
2022-10-25T04:45:21.841Z,0.88
2022-10-25T04:47:48.828Z,1.00
2022-10-25T04:50:15.935Z,1.30
2022-10-25T04:52:42.938Z,1.30
2022-10-25T04:55:09.930Z,1.00
2022-10-25T04:57:36.992Z,0.80
2022-10-25T05:00:05.045Z,1.00
2022-10-25T05:02:32.139Z,1.25
2022-10-25T05:04:59.319Z,1.05
2022-10-25T05:07:26.362Z,2.35
2022-10-25T05:09:53.324Z,1.08
2022-10-25T05:12:20.365Z,0.98
2022-10-25T05:14:47.386Z,1.30
2022-10-25T05:17:14.369Z,1.13
2022-10-25T05:19:41.334Z,0.93
2022-10-25T05:22:08.336Z,0.77
2022-10-25T05:24:35.358Z,3.90
2022-10-25T05:27:03.996Z,0.98
2022-10-25T05:29:31.044Z,1.02
2022-10-25T05:31:58.318Z,1.40
2022-10-25T05:34:25.590Z,1.17
2022-10-25T05:36:53.151Z,1.08
2022-10-25T05:39:20.411Z,1.23
2022-10-25T05:41:47.414Z,1.00
2022-10-25T05:44:16.544Z,0.90
2022-10-25T05:46:44.718Z,0.90
2022-10-25T05:49:12.420Z,0.73
2022-10-25T05:51:39.562Z,1.05
2022-10-25T05:54:10.371Z,2.30
2022-10-25T05:56:37.744Z,1.45
2022-10-25T05:59:09.907Z,1.38
2022-10-25T06:01:40.549Z,1.05
2022-10-25T06:04:08.477Z,1.30
2022-10-25T06:06:37.334Z,1.25
2022-10-25T06:09:05.300Z,2.45
2022-10-25T06:11:33.026Z,1.00
2022-10-25T06:14:00.072Z,1.23
2022-10-25T06:16:27.160Z,1.58
2022-10-25T06:18:54.655Z,1.50
2022-10-25T06:21:24.899Z,1.17
2022-10-25T06:23:52.314Z,0.88
2022-10-25T06:26:21.904Z,1.08
2022-10-25T06:28:53.142Z,3.10
2022-10-25T06:31:20.782Z,1.00
2022-10-25T06:33:47.938Z,1.23
2022-10-25T06:36:23.177Z,1.00
2022-10-25T06:38:50.802Z,1.23
2022-10-25T06:41:23.065Z,1.40
2022-10-25T06:43:51.012Z,1.10
2022-10-25T06:46:27.032Z,1.20
2022-10-25T06:48:55.985Z,1.58
2022-10-25T06:51:24.722Z,1.02
2022-10-25T06:53:56.334Z,1.45
2022-10-25T06:56:24.001Z,1.63
2022-10-25T06:58:51.209Z,1.70
2022-10-25T07:01:20.264Z,1.52
2022-10-25T07:03:50.262Z,1.20
2022-10-25T07:06:19.117Z,1.55
2022-10-25T07:08:47.562Z,2.25
2022-10-25T07:11:17.497Z,1.30
2022-10-25T07:13:45.039Z,1.58
2022-10-25T07:16:17.129Z,1.05
2022-10-25T07:18:44.512Z,1.58
2022-10-25T07:21:20.093Z,1.40
2022-10-25T07:23:48.603Z,1.45
2022-10-25T07:26:31.103Z,0.98
2022-10-25T07:29:00.186Z,2.35
2022-10-25T07:31:44.323Z,1.50
2022-10-25T07:34:14.349Z,2.03
2022-10-25T07:36:41.573Z,1.20
2022-10-25T07:39:08.807Z,1.10
2022-10-25T07:41:35.873Z,1.40
2022-10-25T07:44:02.887Z,1.48
2022-10-25T07:46:29.883Z,0.60
2022-10-25T07:48:56.849Z,1.00
2022-10-25T07:51:23.825Z,1.33
2022-10-25T07:53:53.076Z,1.52
2022-10-25T07:56:23.786Z,2.38
2022-10-25T07:58:52.181Z,1.75
2022-10-25T08:01:24.755Z,0.90
2022-10-25T08:03:53.389Z,1.13
2022-10-25T08:06:25.269Z,0.75
2022-10-25T08:08:52.688Z,1.75
2022-10-25T08:11:20.026Z,1.23
2022-10-25T08:13:49.757Z,2.42
2022-10-25T08:16:17.090Z,1.10
2022-10-25T08:18:44.272Z,0.80
2022-10-25T08:21:11.354Z,1.25
2022-10-25T08:23:38.499Z,1.33
2022-10-25T08:26:05.789Z,1.17
2022-10-25T08:28:32.947Z,0.93
2022-10-25T08:31:01.142Z,0.95
2022-10-25T08:33:29.115Z,0.73
2022-10-25T08:35:56.333Z,1.23
2022-10-25T08:38:23.426Z,0.60
2022-10-25T08:41:17.858Z,1.10
2022-10-25T08:44:04.391Z,1.20
2022-10-25T08:46:55.696Z,0.70
2022-10-25T08:49:47.524Z,2.70
2022-10-25T08:52:30.134Z,1.23
2022-10-25T08:55:03.267Z,0.90
2022-10-25T08:57:37.998Z,1.17
2022-10-25T09:00:11.361Z,1.40
2022-10-25T09:02:46.117Z,1.55
2022-10-25T09:05:20.583Z,1.20
2022-10-25T09:08:23.568Z,0.80
2022-10-25T09:10:52.636Z,1.77
2022-10-25T09:13:41.595Z,1.13
2022-10-25T09:16:18.576Z,0.70
2022-10-25T09:18:54.968Z,1.08
2022-10-25T09:21:46.488Z,0.80
2022-10-25T09:24:33.759Z,2.20
2022-10-25T09:27:22.766Z,1.40
2022-10-25T09:29:58.133Z,0.98
2022-10-25T09:32:41.814Z,0.95
2022-10-25T09:35:24.082Z,1.45
2022-10-25T09:37:55.246Z,1.38
2022-10-25T09:40:27.433Z,2.22
2022-10-25T09:43:07.731Z,1.63
2022-10-25T09:45:50.531Z,0.75
2022-10-25T09:48:46.475Z,1.02
2022-10-25T09:51:35.502Z,1.23
2022-10-25T09:54:13.685Z,1.20
2022-10-25T09:56:40.674Z,1.88
2022-10-25T09:59:13.637Z,0.70
2022-10-25T10:01:41.400Z,0.80
2022-10-25T10:04:34.185Z,1.08
2022-10-25T10:07:11.799Z,0.93
2022-10-25T10:09:45.721Z,1.13
2022-10-25T10:12:28.579Z,0.85
2022-10-25T10:15:03.338Z,0.95
2022-10-25T10:17:30.729Z,2.13
2022-10-25T10:20:18.504Z,1.08
2022-10-25T10:22:50.411Z,1.52
2022-10-25T10:25:20.821Z,2.13
2022-10-25T10:27:50.507Z,0.90
2022-10-25T10:30:29.401Z,1.00
2022-10-25T10:33:01.102Z,1.55
2022-10-25T10:35:34.203Z,1.33
2022-10-25T10:38:21.617Z,1.13
2022-10-25T10:40:51.739Z,0.88
2022-10-25T10:43:32.615Z,1.45
2022-10-25T10:46:07.831Z,1.33
2022-10-25T10:48:42.776Z,0.75
2022-10-25T10:51:38.992Z,1.05
2022-10-25T10:54:25.308Z,0.75
2022-10-25T10:57:00.468Z,0.63
2022-10-25T10:59:42.411Z,0.70
2022-10-25T11:02:42.426Z,1.23
2022-10-25T11:05:21.775Z,1.05
2022-10-25T11:08:00.032Z,0.98
2022-10-25T11:10:31.054Z,1.23
2022-10-25T11:13:05.307Z,1.00
2022-10-25T11:15:44.512Z,1.00
2022-10-25T11:18:13.515Z,1.58
2022-10-25T11:20:53.206Z,0.80
2022-10-25T11:23:27.496Z,0.77
2022-10-25T11:26:21.597Z,1.30
2022-10-25T11:29:02.870Z,1.48
2022-10-25T11:31:52.031Z,1.48
2022-10-25T11:34:51.547Z,1.00
2022-10-25T11:37:33.845Z,0.95
2022-10-25T11:40:17.720Z,1.05
2022-10-25T11:43:28.130Z,0.98
2022-10-25T11:46:07.384Z,1.17
2022-10-25T11:48:46.506Z,0.60
2022-10-25T11:51:28.530Z,0.90
2022-10-25T11:54:52.687Z,1.07
2022-10-25T11:57:22.452Z,0.80
2022-10-25T12:00:02.849Z,1.10
2022-10-25T12:02:46.674Z,0.52
2022-10-25T12:05:16.963Z,0.80
2022-10-25T12:08:08.830Z,0.82
2022-10-25T12:10:39.742Z,1.48
2022-10-25T12:13:20.978Z,1.38
2022-10-25T12:15:52.097Z,1.13
2022-10-25T12:18:29.352Z,0.90
2022-10-25T12:20:57.431Z,0.70
2022-10-25T12:23:27.855Z,1.38
2022-10-25T12:26:01.191Z,1.77
2022-10-25T12:28:55.810Z,0.82
2022-10-25T12:31:28.897Z,0.80
2022-10-25T12:34:07.684Z,1.02
2022-10-25T12:36:40.210Z,0.82
2022-10-25T12:39:13.103Z,0.63
2022-10-25T12:41:43.187Z,1.38
2022-10-25T12:44:49.883Z,1.35
2022-10-25T12:47:17.002Z,1.33
2022-10-25T12:50:15.287Z,0.85
2022-10-25T12:53:06.810Z,1.25
2022-10-25T12:55:40.261Z,0.70
2022-10-25T12:58:22.535Z,1.13
2022-10-25T13:00:52.622Z,1.27
2022-10-25T13:03:37.583Z,0.50
2022-10-25T13:06:19.560Z,0.47
2022-10-25T13:08:47.431Z,0.53
2022-10-25T13:11:14.723Z,0.68
2022-10-25T13:13:51.736Z,0.50
2022-10-25T13:16:28.332Z,0.80
2022-10-25T13:19:25.970Z,1.20
2022-10-25T13:22:34.038Z,0.93
2022-10-25T13:25:13.455Z,0.80
2022-10-25T13:28:15.553Z,0.60
2022-10-25T13:30:43.731Z,0.40
2022-10-25T13:33:27.148Z,0.70
2022-10-25T13:35:54.172Z,0.60
2022-10-25T13:38:27.350Z,0.75
2022-10-25T13:41:17.043Z,0.68
2022-10-25T13:44:02.413Z,0.80
2022-10-25T13:46:33.680Z,0.68
2022-10-25T13:49:03.527Z,0.50
2022-10-25T13:51:32.635Z,0.55
2022-10-25T13:54:07.129Z,0.60
2022-10-25T13:56:47.875Z,0.57
2022-10-25T13:59:36.746Z,2.15
2022-10-25T14:02:19.753Z,0.70
2022-10-25T14:04:47.224Z,0.60
2022-10-25T14:07:42.118Z,0.47
2022-10-25T14:10:22.911Z,0.68
2022-10-25T14:12:53.508Z,1.63
2022-10-25T14:15:46.872Z,0.60
2022-10-25T14:18:19.502Z,1.17
2022-10-25T14:23:21.074Z,0.60
2022-10-25T14:25:58.225Z,0.60
2022-10-25T14:28:30.355Z,0.75
2022-10-25T14:31:02.697Z,0.85
2022-10-25T14:33:35.492Z,1.10
2022-10-25T14:36:04.870Z,0.57
2022-10-25T14:38:35.430Z,0.55
2022-10-25T14:41:10.838Z,1.92
2022-10-25T14:43:39.168Z,0.50
2022-10-25T14:46:06.109Z,0.60
2022-10-25T14:51:06.140Z,0.68
2022-10-25T14:53:34.123Z,0.47
2022-10-25T14:56:03.874Z,0.45
2022-10-25T14:58:42.623Z,0.30
2022-10-25T15:01:12.308Z,0.80
2022-10-25T15:03:45.548Z,0.47
2022-10-25T15:06:14.467Z,0.47
2022-10-25T15:08:47.828Z,0.40
2022-10-25T15:11:19.513Z,0.50
2022-10-25T15:13:49.196Z,0.60
2022-10-25T15:16:30.751Z,0.63
2022-10-25T15:19:09.910Z,0.55
2022-10-25T15:21:41.383Z,0.57
2022-10-25T15:24:24.710Z,0.50
2022-10-25T15:27:01.874Z,0.40
2022-10-25T15:29:29.658Z,0.80
2022-10-25T15:31:56.750Z,0.73
2022-10-25T15:34:23.836Z,0.40
2022-10-25T15:36:50.906Z,0.60
2022-10-25T15:39:26.645Z,0.57
2022-10-25T15:41:54.003Z,0.50
2022-10-25T15:44:21.554Z,0.43
2022-10-25T15:46:49.355Z,0.65
2022-10-25T15:49:17.228Z,2.95
2022-10-25T15:51:45.397Z,1.00
2022-10-25T15:54:16.855Z,1.60
2022-10-25T15:56:45.030Z,1.75
2022-10-25T15:59:12.945Z,1.05
2022-10-25T16:01:46.037Z,1.30
2022-10-25T16:04:15.635Z,1.77
2022-10-25T16:06:43.996Z,1.38
2022-10-25T16:09:11.287Z,1.52
2022-10-25T16:11:43.687Z,1.33
2022-10-25T16:14:22.817Z,2.03
2022-10-25T16:16:50.063Z,1.73
2022-10-25T16:19:20.028Z,2.05
2022-10-25T16:21:47.735Z,1.35
2022-10-25T16:24:14.872Z,1.80
2022-10-25T16:26:45.206Z,1.55
2022-10-25T16:29:18.551Z,1.90
2022-10-25T16:31:45.710Z,3.58
2022-10-25T16:34:15.388Z,2.95
2022-10-25T16:36:42.776Z,2.70
2022-10-25T16:39:11.361Z,2.72
2022-10-25T16:41:40.191Z,2.65
2022-10-25T16:44:07.267Z,3.47
2022-10-25T16:46:34.335Z,3.83
2022-10-25T16:49:02.311Z,4.03
2022-10-25T16:51:29.575Z,6.35
2022-10-25T16:53:58.297Z,3.97
2022-10-25T16:56:25.404Z,3.17
2022-10-25T16:58:52.711Z,3.28
2022-10-25T17:01:27.153Z,2.85
2022-10-25T17:03:54.876Z,3.20
2022-10-25T17:06:40.352Z,4.10
2022-10-25T17:09:08.262Z,3.35
2022-10-25T17:11:36.110Z,3.42
2022-10-25T17:14:04.097Z,3.35
2022-10-25T17:16:31.396Z,4.03
2022-10-25T17:18:58.680Z,2.90
2022-10-25T17:21:35.661Z,3.63
2022-10-25T17:24:04.686Z,3.03
2022-10-25T17:26:32.355Z,2.50
2022-10-25T17:29:00.818Z,2.90
2022-10-25T17:31:32.533Z,4.38
2022-10-25T17:34:00.433Z,4.67
2022-10-25T17:36:31.395Z,4.07
2022-10-25T17:39:00.128Z,3.88
2022-10-25T17:41:27.337Z,4.65
2022-10-25T17:43:56.092Z,4.30
2022-10-25T17:46:31.999Z,3.55
2022-10-25T17:49:05.676Z,2.67
2022-10-25T17:51:34.357Z,4.25
2022-10-25T17:54:01.746Z,5.20
2022-10-25T17:56:28.857Z,8.57
2022-10-25T17:58:57.664Z,10.02
2022-10-25T18:01:27.880Z,12.77
2022-10-25T18:03:55.302Z,18.02
2022-10-25T18:06:24.812Z,10.55
2022-10-25T18:08:54.276Z,6.90
2022-10-25T18:11:23.376Z,5.15
2022-10-25T18:13:52.622Z,4.65
2022-10-25T18:16:21.681Z,3.72
2022-10-25T18:18:48.958Z,4.35
2022-10-25T18:21:16.602Z,5.32
2022-10-25T18:23:43.975Z,3.90
2022-10-25T18:26:12.659Z,5.28
2022-10-25T18:28:40.009Z,4.38
2022-10-25T18:31:09.622Z,4.30
2022-10-25T18:33:38.739Z,5.70
2022-10-25T18:36:12.410Z,4.90
2022-10-25T18:38:39.503Z,4.95
2022-10-25T18:41:26.791Z,4.88
2022-10-25T18:43:54.891Z,5.07
2022-10-25T18:46:22.852Z,6.30
2022-10-25T18:48:51.494Z,5.47
2022-10-25T18:51:20.086Z,5.63
2022-10-25T18:53:47.389Z,6.88
2022-10-25T18:56:19.583Z,6.28
2022-10-25T18:58:49.521Z,5.20
2022-10-25T19:01:20.344Z,6.03
2022-10-25T19:03:47.479Z,3.83
2022-10-25T19:06:14.517Z,3.88
2022-10-25T19:08:42.400Z,6.13
2022-10-25T19:11:12.118Z,4.40
2022-10-25T19:13:40.265Z,4.38
2022-10-25T19:16:08.192Z,5.88
2022-10-25T19:18:37.227Z,5.55
2022-10-25T19:21:07.491Z,6.55
2022-10-25T19:23:35.562Z,7.68
2022-10-25T19:26:04.403Z,7.55
2022-10-25T19:28:32.252Z,6.43
2022-10-25T19:31:06.520Z,7.30
2022-10-25T19:33:33.875Z,9.38
2022-10-25T19:36:05.885Z,6.82
2022-10-25T19:38:33.018Z,7.60
2022-10-25T19:41:01.757Z,8.57
2022-10-25T19:43:29.185Z,8.50
2022-10-25T19:46:00.579Z,7.95
2022-10-25T19:48:31.155Z,7.65
2022-10-25T19:51:07.819Z,7.43
2022-10-25T19:53:34.967Z,8.57
2022-10-25T19:56:07.259Z,10.32
2022-10-25T19:58:35.291Z,10.05
2022-10-25T20:01:10.418Z,13.10
2022-10-25T20:03:38.710Z,11.65
2022-10-25T20:06:08.999Z,12.15
2022-10-25T20:08:38.324Z,11.60
2022-10-25T20:11:06.482Z,14.27
2022-10-25T20:13:33.494Z,18.17
2022-10-25T20:16:00.714Z,16.15
2022-10-25T20:18:34.789Z,16.35
2022-10-25T20:21:12.980Z,19.08
2022-10-25T20:23:41.621Z,14.05
2022-10-25T20:26:13.485Z,14.73
2022-10-25T20:28:41.952Z,9.00
2022-10-25T20:31:09.081Z,8.52
2022-10-25T20:33:36.768Z,8.38
2022-10-25T20:36:07.348Z,8.90
2022-10-25T20:38:35.828Z,9.30
2022-10-25T20:41:13.842Z,9.43
2022-10-25T20:43:43.032Z,6.30
2022-10-25T20:46:10.021Z,6.50
2022-10-25T20:48:37.053Z,7.57
2022-10-25T20:51:07.614Z,6.47
2022-10-25T20:53:35.929Z,7.80
2022-10-25T20:56:03.171Z,7.00
2022-10-25T20:58:30.327Z,8.23
2022-10-25T21:00:57.593Z,9.07
2022-10-25T21:03:26.978Z,9.02
2022-10-25T21:05:56.408Z,10.15
2022-10-25T21:08:23.935Z,9.57
2022-10-25T21:10:57.799Z,8.02
2022-10-25T21:13:26.679Z,7.25
2022-10-25T21:15:53.674Z,7.53
2022-10-25T21:18:20.987Z,8.23
2022-10-25T21:20:48.866Z,8.43
2022-10-25T21:23:16.021Z,9.02
2022-10-25T21:25:42.989Z,8.32
2022-10-25T21:28:09.977Z,8.27
2022-10-25T21:30:36.958Z,8.57
2022-10-25T21:33:04.456Z,7.00
2022-10-25T21:35:32.486Z,6.25
2022-10-25T21:37:59.506Z,7.55
2022-10-25T21:40:26.469Z,7.00
2022-10-25T21:42:53.460Z,7.30
2022-10-25T21:45:20.467Z,7.05
2022-10-25T21:47:47.662Z,8.20
2022-10-25T21:50:15.699Z,8.20
2022-10-25T21:52:42.739Z,6.75
2022-10-25T21:55:09.809Z,6.50
2022-10-25T21:57:36.813Z,10.18
2022-10-25T22:00:04.860Z,9.07
2022-10-25T22:02:39.956Z,7.43
2022-10-25T22:05:07.455Z,10.25
2022-10-25T22:07:34.443Z,7.88
2022-10-25T22:10:01.458Z,7.70
2022-10-25T22:12:28.590Z,7.78
2022-10-25T22:14:55.638Z,8.25
2022-10-25T22:17:23.162Z,7.82
2022-10-25T22:19:50.178Z,7.22
2022-10-25T22:22:17.185Z,7.47
2022-10-25T22:24:44.153Z,5.80
2022-10-25T22:27:11.127Z,5.78
2022-10-25T22:29:38.121Z,5.45
2022-10-25T22:32:05.266Z,6.00
2022-10-25T22:34:32.262Z,5.80
2022-10-25T22:37:01.201Z,5.68
2022-10-25T22:39:28.199Z,5.25
2022-10-25T22:41:55.701Z,5.57
2022-10-25T22:46:54.583Z,6.82
2022-10-25T22:49:21.650Z,8.20
2022-10-25T22:51:48.747Z,9.57
2022-10-25T22:54:15.778Z,8.15
2022-10-25T22:56:42.770Z,7.53
2022-10-25T22:59:11.708Z,7.13
2022-10-25T23:01:39.407Z,7.18
2022-10-25T23:04:08.773Z,7.90
2022-10-25T23:06:38.645Z,7.05
2022-10-25T23:09:09.107Z,7.30
2022-10-25T23:11:38.839Z,7.40
2022-10-25T23:14:07.368Z,5.90
2022-10-25T23:16:34.987Z,4.72
2022-10-25T23:19:02.280Z,5.22
2022-10-25T23:21:30.853Z,5.15
2022-10-25T23:23:59.245Z,5.75
2022-10-25T23:26:34.407Z,4.82
2022-10-25T23:29:01.866Z,4.65
2022-10-25T23:31:30.313Z,4.75
2022-10-25T23:33:59.992Z,4.07
2022-10-25T23:36:29.665Z,4.30
2022-10-25T23:38:57.697Z,4.72
2022-10-25T23:41:24.678Z,4.53
2022-10-25T23:43:51.705Z,6.43
2022-10-25T23:46:19.032Z,4.35
2022-10-25T23:48:46.200Z,3.92
2022-10-25T23:51:15.681Z,4.47
2022-10-25T23:53:43.217Z,3.33
2022-10-25T23:56:12.300Z,5.00
2022-10-25T23:58:39.503Z,3.67
